sensor_id;sensor_type;location;lat;lon;timestamp;pressure;altitude;pressure_sealevel;temperature;humidity
24746;BME280;12845;52.042;6.838;2023-05-31T00:01:37;-18399.00;;;13.79;100.00
24746;BME280;12845;52.042;6.838;2023-05-31T00:04:02;-18396.00;;;13.68;100.00
24746;BME280;12845;52.042;6.838;2023-05-31T00:06:28;-18394.22;;;13.61;100.00
24746;BME280;12845;52.042;6.838;2023-05-31T00:08:53;-18393.66;;;13.59;100.00
24746;BME280;12845;52.042;6.838;2023-05-31T00:11:18;-18394.06;;;13.61;100.00
24746;BME280;12845;52.042;6.838;2023-05-31T00:13:44;-18393.66;;;13.59;100.00
24746;BME280;12845;52.042;6.838;2023-05-31T00:16:09;-18395.84;;;13.67;100.00
24746;BME280;12845;52.042;6.838;2023-05-31T00:18:35;-18395.03;;;13.64;100.00
24746;BME280;12845;52.042;6.838;2023-05-31T00:21:00;-18393.09;;;13.57;100.00
24746;BME280;12845;52.042;6.838;2023-05-31T00:23:25;-18387.63;;;13.37;100.00
24746;BME280;12845;52.042;6.838;2023-05-31T00:25:50;-18388.19;;;13.39;100.00
24746;BME280;12845;52.042;6.838;2023-05-31T00:28:15;-18383.66;;;13.22;100.00
24746;BME280;12845;52.042;6.838;2023-05-31T00:30:41;-18384.63;;;13.25;100.00
24746;BME280;12845;52.042;6.838;2023-05-31T00:33:06;-18381.47;;;13.14;100.00
24746;BME280;12845;52.042;6.838;2023-05-31T00:35:31;-18384.34;;;13.24;100.00
24746;BME280;12845;52.042;6.838;2023-05-31T00:37:56;-18381.19;;;13.13;100.00
24746;BME280;12845;52.042;6.838;2023-05-31T00:40:22;-18382.97;;;13.19;100.00
24746;BME280;12845;52.042;6.838;2023-05-31T00:42:47;-18381.19;;;13.13;100.00
24746;BME280;12845;52.042;6.838;2023-05-31T00:45:12;-18382.28;;;13.17;100.00
24746;BME280;12845;52.042;6.838;2023-05-31T00:47:38;-18380.22;;;13.09;100.00
24746;BME280;12845;52.042;6.838;2023-05-31T00:50:03;-18381.47;;;13.14;100.00
24746;BME280;12845;52.042;6.838;2023-05-31T00:52:29;-18382.28;;;13.17;100.00
24746;BME280;12845;52.042;6.838;2023-05-31T00:54:55;-18377.63;;;12.99;100.00
24746;BME280;12845;52.042;6.838;2023-05-31T00:57:20;-18381.19;;;13.13;100.00
24746;BME280;12845;52.042;6.838;2023-05-31T00:59:46;-18378.56;;;13.03;100.00
24746;BME280;12845;52.042;6.838;2023-05-31T01:02:11;-18375.16;;;12.90;100.00
24746;BME280;12845;52.042;6.838;2023-05-31T01:04:36;-18377.06;;;12.97;100.00
24746;BME280;12845;52.042;6.838;2023-05-31T01:07:02;-18375.41;;;12.91;100.00
24746;BME280;12845;52.042;6.838;2023-05-31T01:09:28;-18374.31;;;12.87;100.00
24746;BME280;12845;52.042;6.838;2023-05-31T01:11:57;-18379.00;;;13.04;100.00
24746;BME280;12845;52.042;6.838;2023-05-31T01:16:59;-18372.41;;;12.80;100.00
24746;BME280;12845;52.042;6.838;2023-05-31T01:27:08;-18384.06;;;13.23;100.00
24746;BME280;12845;52.042;6.838;2023-05-31T01:29:34;-18388.59;;;13.40;100.00
24746;BME280;12845;52.042;6.838;2023-05-31T01:32:00;-18385.97;;;13.30;100.00
24746;BME280;12845;52.042;6.838;2023-05-31T01:34:26;-18384.63;;;13.25;100.00
24746;BME280;12845;52.042;6.838;2023-05-31T01:36:51;-18383.78;;;13.22;100.00
24746;BME280;12845;52.042;6.838;2023-05-31T01:39:16;-18382.00;;;13.16;100.00
24746;BME280;12845;52.042;6.838;2023-05-31T01:41:43;-18378.31;;;13.02;100.00
24746;BME280;12845;52.042;6.838;2023-05-31T01:44:10;-18377.88;;;13.00;100.00
24746;BME280;12845;52.042;6.838;2023-05-31T01:46:38;-18379.25;;;13.05;100.00
24746;BME280;12845;52.042;6.838;2023-05-31T01:49:05;-18377.75;;;13.00;100.00
24746;BME280;12845;52.042;6.838;2023-05-31T01:51:30;-18379.69;;;13.07;100.00
24746;BME280;12845;52.042;6.838;2023-05-31T01:53:57;-18376.66;;;12.96;100.00
24746;BME280;12845;52.042;6.838;2023-05-31T01:56:23;-18374.88;;;12.89;100.00
24746;BME280;12845;52.042;6.838;2023-05-31T01:58:49;-18373.63;;;12.84;100.00
24746;BME280;12845;52.042;6.838;2023-05-31T02:01:15;-18372.53;;;12.80;100.00
24746;BME280;12845;52.042;6.838;2023-05-31T02:03:41;-18369.53;;;12.69;100.00
24746;BME280;12845;52.042;6.838;2023-05-31T02:06:07;-18372.53;;;12.80;100.00
24746;BME280;12845;52.042;6.838;2023-05-31T02:08:32;-18370.06;;;12.71;100.00
24746;BME280;12845;52.042;6.838;2023-05-31T02:10:57;-18368.16;;;12.64;100.00
24746;BME280;12845;52.042;6.838;2023-05-31T02:13:31;-18368.97;;;12.67;100.00
24746;BME280;12845;52.042;6.838;2023-05-31T02:15:57;-18370.63;;;12.73;100.00
24746;BME280;12845;52.042;6.838;2023-05-31T02:18:23;-18374.06;;;12.86;100.00
24746;BME280;12845;52.042;6.838;2023-05-31T02:20:51;-18369.81;;;12.70;100.00
24746;BME280;12845;52.042;6.838;2023-05-31T02:23:16;-18367.59;;;12.62;100.00
24746;BME280;12845;52.042;6.838;2023-05-31T02:25:44;-18372.13;;;12.79;100.00
24746;BME280;12845;52.042;6.838;2023-05-31T02:28:09;-18376.38;;;12.95;100.00
24746;BME280;12845;52.042;6.838;2023-05-31T02:30:35;-18378.16;;;13.01;100.00
24746;BME280;12845;52.042;6.838;2023-05-31T02:33:01;-18370.63;;;12.73;100.00
24746;BME280;12845;52.042;6.838;2023-05-31T02:35:27;-18370.63;;;12.73;100.00
24746;BME280;12845;52.042;6.838;2023-05-31T02:37:52;-18372.81;;;12.81;100.00
24746;BME280;12845;52.042;6.838;2023-05-31T02:40:17;-18371.03;;;12.75;100.00
24746;BME280;12845;52.042;6.838;2023-05-31T02:42:43;-18365.81;;;12.55;100.00
24746;BME280;12845;52.042;6.838;2023-05-31T02:45:08;-18364.31;;;12.50;100.00
24746;BME280;12845;52.042;6.838;2023-05-31T02:47:35;-18365.97;;;12.56;100.00
24746;BME280;12845;52.042;6.838;2023-05-31T02:50:00;-18367.59;;;12.62;100.00
24746;BME280;12845;52.042;6.838;2023-05-31T02:52:25;-18366.66;;;12.58;100.00
24746;BME280;12845;52.042;6.838;2023-05-31T02:54:51;-18370.06;;;12.71;100.00
24746;BME280;12845;52.042;6.838;2023-05-31T02:57:16;-18370.06;;;12.71;100.00
24746;BME280;12845;52.042;6.838;2023-05-31T02:59:45;-18369.66;;;12.70;100.00
24746;BME280;12845;52.042;6.838;2023-05-31T03:02:11;-18366.22;;;12.57;100.00
24746;BME280;12845;52.042;6.838;2023-05-31T03:04:36;-18373.09;;;12.82;100.00
24746;BME280;12845;52.042;6.838;2023-05-31T03:07:01;-18365.69;;;12.55;100.00
24746;BME280;12845;52.042;6.838;2023-05-31T03:09:27;-18364.88;;;12.52;100.00
24746;BME280;12845;52.042;6.838;2023-05-31T03:11:52;-18364.03;;;12.49;100.00
24746;BME280;12845;52.042;6.838;2023-05-31T03:14:17;-18361.72;;;12.40;100.00
24746;BME280;12845;52.042;6.838;2023-05-31T03:16:43;-18360.75;;;12.36;100.00
24746;BME280;12845;52.042;6.838;2023-05-31T03:19:08;-18355.69;;;12.17;100.00
24746;BME280;12845;52.042;6.838;2023-05-31T03:21:33;-18353.34;;;12.09;100.00
24746;BME280;12845;52.042;6.838;2023-05-31T03:23:59;-18349.38;;;11.94;100.00
24746;BME280;12845;52.042;6.838;2023-05-31T03:26:24;-18351.69;;;12.03;100.00
24746;BME280;12845;52.042;6.838;2023-05-31T03:28:49;-18351.97;;;12.04;100.00
24746;BME280;12845;52.042;6.838;2023-05-31T03:31:14;-18358.41;;;12.28;100.00
24746;BME280;12845;52.042;6.838;2023-05-31T03:33:40;-18363.50;;;12.47;100.00
24746;BME280;12845;52.042;6.838;2023-05-31T03:36:05;-18359.38;;;12.31;100.00
24746;BME280;12845;52.042;6.838;2023-05-31T03:38:31;-18356.38;;;12.20;100.00
24746;BME280;12845;52.042;6.838;2023-05-31T03:40:56;-18358.69;;;12.29;100.00
24746;BME280;12845;52.042;6.838;2023-05-31T03:43:21;-18360.75;;;12.36;100.00
24746;BME280;12845;52.042;6.838;2023-05-31T03:45:46;-18360.47;;;12.35;100.00
24746;BME280;12845;52.042;6.838;2023-05-31T03:48:12;-18358.28;;;12.27;100.00
24746;BME280;12845;52.042;6.838;2023-05-31T03:50:38;-18358.28;;;12.27;100.00
24746;BME280;12845;52.042;6.838;2023-05-31T03:53:04;-18356.78;;;12.22;100.00
24746;BME280;12845;52.042;6.838;2023-05-31T03:55:30;-18360.06;;;12.34;100.00
24746;BME280;12845;52.042;6.838;2023-05-31T03:57:55;-18358.56;;;12.28;100.00
24746;BME280;12845;52.042;6.838;2023-05-31T04:00:21;-18363.09;;;12.45;100.00
24746;BME280;12845;52.042;6.838;2023-05-31T04:02:46;-18361.84;;;12.40;100.00
24746;BME280;12845;52.042;6.838;2023-05-31T04:05:11;-18364.88;;;12.52;100.00
24746;BME280;12845;52.042;6.838;2023-05-31T04:07:37;-18361.84;;;12.40;100.00
24746;BME280;12845;52.042;6.838;2023-05-31T04:10:02;-18363.22;;;12.46;100.00
24746;BME280;12845;52.042;6.838;2023-05-31T04:12:27;-18362.66;;;12.44;100.00
24746;BME280;12845;52.042;6.838;2023-05-31T04:14:53;-18366.09;;;12.56;100.00
24746;BME280;12845;52.042;6.838;2023-05-31T04:17:18;-18367.06;;;12.60;100.00
24746;BME280;12845;52.042;6.838;2023-05-31T04:19:43;-18371.44;;;12.76;100.00
24746;BME280;12845;52.042;6.838;2023-05-31T04:22:08;-18376.09;;;12.94;100.00
24746;BME280;12845;52.042;6.838;2023-05-31T04:24:34;-18381.03;;;13.12;100.00
24746;BME280;12845;52.042;6.838;2023-05-31T04:26:59;-18375.16;;;12.90;100.00
24746;BME280;12845;52.042;6.838;2023-05-31T04:29:24;-18366.38;;;12.57;100.00
24746;BME280;12845;52.042;6.838;2023-05-31T04:31:50;-18367.75;;;12.62;100.00
24746;BME280;12845;52.042;6.838;2023-05-31T04:34:16;-18366.78;;;12.59;100.00
24746;BME280;12845;52.042;6.838;2023-05-31T04:36:43;-18366.22;;;12.57;100.00
24746;BME280;12845;52.042;6.838;2023-05-31T04:39:09;-18365.13;;;12.53;100.00
24746;BME280;12845;52.042;6.838;2023-05-31T04:41:39;-18368.72;;;12.66;100.00
24746;BME280;12845;52.042;6.838;2023-05-31T04:44:04;-18365.13;;;12.53;100.00
24746;BME280;12845;52.042;6.838;2023-05-31T04:46:29;-18374.47;;;12.87;100.00
24746;BME280;12845;52.042;6.838;2023-05-31T04:48:55;-18373.78;;;12.85;100.00
24746;BME280;12845;52.042;6.838;2023-05-31T04:51:20;-18371.44;;;12.76;100.00
24746;BME280;12845;52.042;6.838;2023-05-31T04:53:45;-18369.81;;;12.70;100.00
24746;BME280;12845;52.042;6.838;2023-05-31T04:56:12;-18372.28;;;12.79;100.00
24746;BME280;12845;52.042;6.838;2023-05-31T04:58:38;-18374.47;;;12.87;100.00
24746;BME280;12845;52.042;6.838;2023-05-31T05:01:03;-18369.13;;;12.68;100.00
24746;BME280;12845;52.042;6.838;2023-05-31T05:03:28;-18370.06;;;12.71;100.00
24746;BME280;12845;52.042;6.838;2023-05-31T05:05:55;-18370.22;;;12.72;100.00
24746;BME280;12845;52.042;6.838;2023-05-31T05:08:21;-18374.47;;;12.87;100.00
24746;BME280;12845;52.042;6.838;2023-05-31T05:10:47;-18374.75;;;12.88;100.00
24746;BME280;12845;52.042;6.838;2023-05-31T05:13:12;-18377.22;;;12.98;100.00
24746;BME280;12845;52.042;6.838;2023-05-31T05:15:37;-18377.88;;;13.00;100.00
24746;BME280;12845;52.042;6.838;2023-05-31T05:18:03;-18383.22;;;13.20;100.00
24746;BME280;12845;52.042;6.838;2023-05-31T05:20:28;-18385.16;;;13.27;100.00
24746;BME280;12845;52.042;6.838;2023-05-31T05:22:53;-18390.91;;;13.49;100.00
24746;BME280;12845;52.042;6.838;2023-05-31T05:25:19;-18392.28;;;13.54;100.00
24746;BME280;12845;52.042;6.838;2023-05-31T05:27:45;-18390.22;;;13.46;100.00
24746;BME280;12845;52.042;6.838;2023-05-31T05:30:10;-18394.22;;;13.61;100.00
24746;BME280;12845;52.042;6.838;2023-05-31T05:32:36;-18398.19;;;13.76;100.00
24746;BME280;12845;52.042;6.838;2023-05-31T05:35:01;-18401.31;;;13.88;100.00
24746;BME280;12845;52.042;6.838;2023-05-31T05:37:26;-18402.56;;;13.92;100.00
24746;BME280;12845;52.042;6.838;2023-05-31T05:39:52;-18401.59;;;13.89;100.00
24746;BME280;12845;52.042;6.838;2023-05-31T05:42:17;-18402.84;;;13.93;100.00
24746;BME280;12845;52.042;6.838;2023-05-31T05:44:42;-18405.31;;;14.03;100.00
24746;BME280;12845;52.042;6.838;2023-05-31T05:47:07;-18411.19;;;14.25;100.00
24746;BME280;12845;52.042;6.838;2023-05-31T05:49:33;-18416.53;;;14.44;100.00
24746;BME280;12845;52.042;6.838;2023-05-31T05:51:59;-18416.94;;;14.46;100.00
24746;BME280;12845;52.042;6.838;2023-05-31T05:54:24;-18415.03;;;14.39;100.00
24746;BME280;12845;52.042;6.838;2023-05-31T05:56:49;-18420.09;;;14.58;100.00
24746;BME280;12845;52.042;6.838;2023-05-31T05:59:14;-18424.19;;;14.73;100.00
24746;BME280;12845;52.042;6.838;2023-05-31T06:01:40;-18426.66;;;14.82;100.00
24746;BME280;12845;52.042;6.838;2023-05-31T06:04:05;-18428.72;;;14.90;100.00
24746;BME280;12845;52.042;6.838;2023-05-31T06:06:31;-18425.28;;;14.77;100.00
24746;BME280;12845;52.042;6.838;2023-05-31T06:08:57;-18431.44;;;15.00;100.00
24746;BME280;12845;52.042;6.838;2023-05-31T06:11:22;-18435.97;;;15.17;100.00
24746;BME280;12845;52.042;6.838;2023-05-31T06:13:48;-18433.63;;;15.08;100.00
24746;BME280;12845;52.042;6.838;2023-05-31T06:16:13;-18435.00;;;15.14;100.00
24746;BME280;12845;52.042;6.838;2023-05-31T06:18:39;-18436.94;;;15.21;100.00
24746;BME280;12845;52.042;6.838;2023-05-31T06:21:04;-18447.19;;;15.59;100.00
24746;BME280;12845;52.042;6.838;2023-05-31T06:23:29;-18445.94;;;15.54;100.00
24746;BME280;12845;52.042;6.838;2023-05-31T06:25:55;-18453.75;;;15.84;100.00
24746;BME280;12845;52.042;6.838;2023-05-31T06:28:20;-18451.44;;;15.75;100.00
24746;BME280;12845;52.042;6.838;2023-05-31T06:30:45;-18459.50;;;16.05;100.00
24746;BME280;12845;52.042;6.838;2023-05-31T06:33:11;-18452.25;;;15.78;100.00
24746;BME280;12845;52.042;6.838;2023-05-31T06:35:36;-18455.38;;;15.90;100.00
24746;BME280;12845;52.042;6.838;2023-05-31T06:38:01;-18462.91;;;16.18;100.00
24746;BME280;12845;52.042;6.838;2023-05-31T06:40:28;-18461.28;;;16.12;100.00
24746;BME280;12845;52.042;6.838;2023-05-31T06:42:53;-18462.38;;;16.16;100.00
24746;BME280;12845;52.042;6.838;2023-05-31T06:45:19;-18465.50;;;16.28;100.00
24746;BME280;12845;52.042;6.838;2023-05-31T06:47:44;-18466.47;;;16.31;100.00
24746;BME280;12845;52.042;6.838;2023-05-31T06:50:10;-18471.25;;;16.49;100.00
24746;BME280;12845;52.042;6.838;2023-05-31T06:52:35;-18474.66;;;16.62;100.00
24746;BME280;12845;52.042;6.838;2023-05-31T06:55:01;-18473.84;;;16.59;100.00
24746;BME280;12845;52.042;6.838;2023-05-31T06:57:26;-18472.06;;;16.52;100.00
24746;BME280;12845;52.042;6.838;2023-05-31T06:59:51;-18478.63;;;16.77;100.00
24746;BME280;12845;52.042;6.838;2023-05-31T07:02:16;-18482.44;;;16.91;100.00
24746;BME280;12845;52.042;6.838;2023-05-31T07:04:41;-18485.59;;;17.03;100.00
24746;BME280;12845;52.042;6.838;2023-05-31T07:07:07;-18484.50;;;16.99;100.00
24746;BME280;12845;52.042;6.838;2023-05-31T07:09:34;-18485.59;;;17.03;100.00
24746;BME280;12845;52.042;6.838;2023-05-31T07:11:59;-18485.88;;;17.04;100.00
24746;BME280;12845;52.042;6.838;2023-05-31T07:14:27;-18494.59;;;17.36;100.00
24746;BME280;12845;52.042;6.838;2023-05-31T07:16:52;-18499.09;;;17.53;100.00
24746;BME280;12845;52.042;6.838;2023-05-31T07:19:17;-18502.25;;;17.65;100.00
24746;BME280;12845;52.042;6.838;2023-05-31T07:21:43;-18503.19;;;17.69;100.00
24746;BME280;12845;52.042;6.838;2023-05-31T07:24:08;-18506.34;;;17.80;100.00
24746;BME280;12845;52.042;6.838;2023-05-31T07:26:34;-18510.72;;;17.97;100.00
24746;BME280;12845;52.042;6.838;2023-05-31T07:29:00;-18513.56;;;18.08;100.00
24746;BME280;12845;52.042;6.838;2023-05-31T07:31:25;-18515.63;;;18.15;100.00
24746;BME280;12845;52.042;6.838;2023-05-31T07:33:50;-18522.56;;;18.41;100.00
24746;BME280;12845;52.042;6.838;2023-05-31T07:36:16;-18524.34;;;18.48;100.00
24746;BME280;12845;52.042;6.838;2023-05-31T07:38:41;-18525.97;;;18.54;100.00
24746;BME280;12845;52.042;6.838;2023-05-31T07:41:06;-18526.81;;;18.57;100.00
24746;BME280;12845;52.042;6.838;2023-05-31T07:43:31;-18533.91;;;18.84;100.00
24746;BME280;12845;52.042;6.838;2023-05-31T07:45:57;-18541.25;;;19.11;100.00
24746;BME280;12845;52.042;6.838;2023-05-31T07:48:23;-18544.25;;;19.23;100.00
24746;BME280;12845;52.042;6.838;2023-05-31T07:50:48;-18542.63;;;19.16;100.00
24746;BME280;12845;52.042;6.838;2023-05-31T07:53:14;-18537.72;;;18.98;100.00
24746;BME280;12845;52.042;6.838;2023-05-31T07:55:39;-18544.53;;;19.24;100.00
24746;BME280;12845;52.042;6.838;2023-05-31T07:58:05;-18542.06;;;19.14;100.00
24746;BME280;12845;52.042;6.838;2023-05-31T08:00:31;-18548.75;;;19.39;100.00
24746;BME280;12845;52.042;6.838;2023-05-31T08:02:56;-18555.28;;;19.64;100.00
24746;BME280;12845;52.042;6.838;2023-05-31T08:05:21;-18553.38;;;19.57;100.00
24746;BME280;12845;52.042;6.838;2023-05-31T08:07:47;-18560.59;;;19.84;100.00
24746;BME280;12845;52.042;6.838;2023-05-31T08:10:12;-18564.97;;;20.00;100.00
24746;BME280;12845;52.042;6.838;2023-05-31T08:12:37;-18566.88;;;20.08;100.00
24746;BME280;12845;52.042;6.838;2023-05-31T08:15:03;-18561.41;;;19.87;100.00
24746;BME280;12845;52.042;6.838;2023-05-31T08:17:28;-18564.69;;;19.99;100.00
24746;BME280;12845;52.042;6.838;2023-05-31T08:19:54;-18572.59;;;20.29;100.00
24746;BME280;12845;52.042;6.838;2023-05-31T08:22:19;-18575.84;;;20.41;100.00
24746;BME280;12845;52.042;6.838;2023-05-31T08:24:44;-18576.94;;;20.45;100.00
24746;BME280;12845;52.042;6.838;2023-05-31T08:27:10;-18581.84;;;20.64;100.00
24746;BME280;12845;52.042;6.838;2023-05-31T08:29:35;-18580.47;;;20.59;100.00
24746;BME280;12845;52.042;6.838;2023-05-31T08:32:00;-18580.63;;;20.59;100.00
24746;BME280;12845;52.042;6.838;2023-05-31T08:34:25;-18584.97;;;20.76;99.52
24746;BME280;12845;52.042;6.838;2023-05-31T08:36:51;-18587.69;;;20.86;96.45
24746;BME280;12845;52.042;6.838;2023-05-31T08:39:16;-18591.22;;;20.99;100.00
24746;BME280;12845;52.042;6.838;2023-05-31T08:42:02;-18596.38;;;21.18;96.86
24746;BME280;12845;52.042;6.838;2023-05-31T08:44:27;-18603.19;;;21.44;97.66
24746;BME280;12845;52.042;6.838;2023-05-31T08:46:53;-18601.28;;;21.37;94.02
24746;BME280;12845;52.042;6.838;2023-05-31T08:49:22;-18601.41;;;21.37;95.90
24746;BME280;12845;52.042;6.838;2023-05-31T08:51:47;-18602.91;;;21.43;91.07
24746;BME280;12845;52.042;6.838;2023-05-31T08:54:13;-18607.81;;;21.61;88.46
24746;BME280;12845;52.042;6.838;2023-05-31T08:56:38;-18607.81;;;21.61;86.94
24746;BME280;12845;52.042;6.838;2023-05-31T08:59:06;-18610.66;;;21.72;88.75
24746;BME280;12845;52.042;6.838;2023-05-31T09:01:32;-18618.13;;;22.00;79.84
24746;BME280;12845;52.042;6.838;2023-05-31T09:03:58;-18625.47;;;22.28;83.08
24746;BME280;12845;52.042;6.838;2023-05-31T09:06:24;-18626.97;;;22.34;83.77
24746;BME280;12845;52.042;6.838;2023-05-31T09:08:49;-18624.25;;;22.23;82.22
24746;BME280;12845;52.042;6.838;2023-05-31T09:11:15;-18623.56;;;22.21;79.44
24746;BME280;12845;52.042;6.838;2023-05-31T09:13:40;-18632.28;;;22.53;79.88
24746;BME280;12845;52.042;6.838;2023-05-31T09:16:05;-18636.34;;;22.69;80.95
24746;BME280;12845;52.042;6.838;2023-05-31T09:18:37;-18639.06;;;22.79;75.06
24746;BME280;12845;52.042;6.838;2023-05-31T09:21:13;-18638.38;;;22.77;77.98
24746;BME280;12845;52.042;6.838;2023-05-31T09:26:50;-18643.41;;;22.95;75.28
24746;BME280;12845;52.042;6.838;2023-05-31T09:29:15;-18651.28;;;23.25;74.00
24746;BME280;12845;52.042;6.838;2023-05-31T09:31:42;-18650.88;;;23.24;71.48
24746;BME280;12845;52.042;6.838;2023-05-31T09:36:48;-18659.69;;;23.57;72.13
24746;BME280;12845;52.042;6.838;2023-05-31T09:39:15;-18653.03;;;23.32;66.96
24746;BME280;12845;52.042;6.838;2023-05-31T09:41:40;-18657.09;;;23.47;66.19
24746;BME280;12845;52.042;6.838;2023-05-31T09:44:07;-18665.78;;;23.80;65.74
24746;BME280;12845;52.042;6.838;2023-05-31T09:46:32;-18659.28;;;23.55;63.43
24746;BME280;12845;52.042;6.838;2023-05-31T09:48:59;-18668.50;;;23.90;62.78
24746;BME280;12845;52.042;6.838;2023-05-31T09:51:25;-18675.53;;;24.17;65.77
24746;BME280;12845;52.042;6.838;2023-05-31T09:53:51;-18672.03;;;24.03;60.08
24746;BME280;12845;52.042;6.838;2023-05-31T09:56:20;-18674.59;;;24.13;62.53
24746;BME280;12845;52.042;6.838;2023-05-31T09:58:49;-18677.72;;;24.25;56.53
24746;BME280;12845;52.042;6.838;2023-05-31T10:01:14;-18678.13;;;24.26;56.53
24746;BME280;12845;52.042;6.838;2023-05-31T10:03:40;-18673.91;;;24.10;56.57
24746;BME280;12845;52.042;6.838;2023-05-31T10:06:05;-18679.75;;;24.32;57.28
24746;BME280;12845;52.042;6.838;2023-05-31T10:08:31;-18684.75;;;24.51;52.68
24746;BME280;12845;52.042;6.838;2023-05-31T10:11:00;-18686.13;;;24.57;54.22
24746;BME280;12845;52.042;6.838;2023-05-31T10:13:26;-18688.00;;;24.64;52.70
24746;BME280;12845;52.042;6.838;2023-05-31T10:15:53;-18688.41;;;24.65;52.74
24746;BME280;12845;52.042;6.838;2023-05-31T10:18:19;-18693.97;;;24.86;54.25
24746;BME280;12845;52.042;6.838;2023-05-31T10:20:51;-18695.88;;;24.93;50.02
24746;BME280;12845;52.042;6.838;2023-05-31T10:23:19;-18701.16;;;25.13;51.15
24746;BME280;12845;52.042;6.838;2023-05-31T10:28:35;-18685.72;;;24.55;52.07
24746;BME280;12845;52.042;6.838;2023-05-31T10:31:00;-18682.47;;;24.43;53.87
24746;BME280;12845;52.042;6.838;2023-05-31T10:33:28;-18685.31;;;24.53;52.88
24746;BME280;12845;52.042;6.838;2023-05-31T10:35:55;-18686.38;;;24.58;53.26
24746;BME280;12845;52.042;6.838;2023-05-31T10:38:21;-18687.34;;;24.61;51.19
24746;BME280;12845;52.042;6.838;2023-05-31T10:40:52;-18681.78;;;24.40;48.81
24746;BME280;12845;52.042;6.838;2023-05-31T10:43:19;-18688.69;;;24.66;50.24
24746;BME280;12845;52.042;6.838;2023-05-31T10:45:51;-18688.41;;;24.65;50.57
24746;BME280;12845;52.042;6.838;2023-05-31T10:50:58;-18693.44;;;24.84;49.66
24746;BME280;12845;52.042;6.838;2023-05-31T10:53:45;-18693.97;;;24.86;51.01
24746;BME280;12845;52.042;6.838;2023-05-31T10:56:11;-18693.69;;;24.85;52.97
24746;BME280;12845;52.042;6.838;2023-05-31T10:58:39;-18690.72;;;24.74;48.45
24746;BME280;12845;52.042;6.838;2023-05-31T11:01:05;-18698.97;;;25.05;50.46
24746;BME280;12845;52.042;6.838;2023-05-31T11:03:32;-18705.06;;;25.28;47.69
24746;BME280;12845;52.042;6.838;2023-05-31T11:05:59;-18702.50;;;25.18;46.15
24746;BME280;12845;52.042;6.838;2023-05-31T11:08:25;-18701.28;;;25.14;48.36
24746;BME280;12845;52.042;6.838;2023-05-31T11:10:50;-18703.19;;;25.21;51.21
24746;BME280;12845;52.042;6.838;2023-05-31T11:13:16;-18702.50;;;25.18;47.92
24746;BME280;12845;52.042;6.838;2023-05-31T11:15:42;-18706.97;;;25.35;48.75
24746;BME280;12845;52.042;6.838;2023-05-31T11:18:08;-18704.66;;;25.27;46.66
24746;BME280;12845;52.042;6.838;2023-05-31T11:20:36;-18706.69;;;25.34;48.27
24746;BME280;12845;52.042;6.838;2023-05-31T11:28:30;-18717.53;;;25.75;46.13
24746;BME280;12845;52.042;6.838;2023-05-31T11:30:56;-18719.41;;;25.82;47.91
24746;BME280;12845;52.042;6.838;2023-05-31T11:33:21;-18715.34;;;25.67;46.31
24746;BME280;12845;52.042;6.838;2023-05-31T11:35:48;-18715.09;;;25.66;46.96
24746;BME280;12845;52.042;6.838;2023-05-31T11:38:14;-18716.56;;;25.72;45.89
24746;BME280;12845;52.042;6.838;2023-05-31T11:40:40;-18715.63;;;25.68;45.74
24746;BME280;12845;52.042;6.838;2023-05-31T11:43:06;-18716.97;;;25.73;45.66
24746;BME280;12845;52.042;6.838;2023-05-31T11:45:32;-18722.66;;;25.95;45.21
24746;BME280;12845;52.042;6.838;2023-05-31T11:50:42;-18728.34;;;26.16;44.45
24746;BME280;12845;52.042;6.838;2023-05-31T11:53:09;-18720.22;;;25.85;44.88
24746;BME280;12845;52.042;6.838;2023-05-31T11:55:35;-18719.69;;;25.83;45.62
24746;BME280;12845;52.042;6.838;2023-05-31T11:58:00;-18722.00;;;25.92;45.89
24746;BME280;12845;52.042;6.838;2023-05-31T12:00:26;-18728.06;;;26.15;45.56
24746;BME280;12845;52.042;6.838;2023-05-31T12:02:53;-18726.44;;;26.09;44.13
24746;BME280;12845;52.042;6.838;2023-05-31T12:05:18;-18736.44;;;26.47;44.43
24746;BME280;12845;52.042;6.838;2023-05-31T12:07:44;-18740.25;;;26.61;43.15
24746;BME280;12845;52.042;6.838;2023-05-31T12:10:10;-18741.47;;;26.66;43.10
24746;BME280;12845;52.042;6.838;2023-05-31T12:12:35;-18745.09;;;26.80;43.16
24746;BME280;12845;52.042;6.838;2023-05-31T12:15:03;-18747.53;;;26.89;45.17
24746;BME280;12845;52.042;6.838;2023-05-31T12:17:31;-18753.75;;;27.12;42.66
24746;BME280;12845;52.042;6.838;2023-05-31T12:19:57;-18756.59;;;27.23;43.39
24746;BME280;12845;52.042;6.838;2023-05-31T12:22:22;-18754.97;;;27.17;41.30
24746;BME280;12845;52.042;6.838;2023-05-31T12:24:48;-18749.44;;;26.96;42.29
24746;BME280;12845;52.042;6.838;2023-05-31T12:27:17;-18748.22;;;26.91;41.51
24746;BME280;12845;52.042;6.838;2023-05-31T12:29:43;-18738.63;;;26.55;41.87
24746;BME280;12845;52.042;6.838;2023-05-31T12:32:08;-18749.97;;;26.98;42.21
24746;BME280;12845;52.042;6.838;2023-05-31T12:34:35;-18750.25;;;26.99;41.28
24746;BME280;12845;52.042;6.838;2023-05-31T12:37:04;-18744.44;;;26.77;40.93
24746;BME280;12845;52.042;6.838;2023-05-31T12:39:30;-18750.38;;;26.99;42.37
24746;BME280;12845;52.042;6.838;2023-05-31T12:41:55;-18757.53;;;27.27;40.75
24746;BME280;12845;52.042;6.838;2023-05-31T12:44:22;-18762.41;;;27.45;40.61
24746;BME280;12845;52.042;6.838;2023-05-31T12:46:48;-18756.88;;;27.24;41.02
24746;BME280;12845;52.042;6.838;2023-05-31T12:49:20;-18763.22;;;27.48;40.98
24746;BME280;12845;52.042;6.838;2023-05-31T12:51:47;-18756.06;;;27.21;39.66
24746;BME280;12845;52.042;6.838;2023-05-31T12:54:12;-18759.97;;;27.36;40.28
24746;BME280;12845;52.042;6.838;2023-05-31T12:56:38;-18767.81;;;27.65;40.52
24746;BME280;12845;52.042;6.838;2023-05-31T12:59:03;-18773.75;;;27.88;40.06
24746;BME280;12845;52.042;6.838;2023-05-31T13:01:28;-18773.47;;;27.87;40.60
24746;BME280;12845;52.042;6.838;2023-05-31T13:03:54;-18772.94;;;27.85;40.41
24746;BME280;12845;52.042;6.838;2023-05-31T13:06:19;-18764.81;;;27.54;40.27